Cornwall, United Kingdom
Current Conditions -  °F | °C
As of 4:20 PM on Friday 31 Oct 2014 (Local Time) from EGHQ Reporting Station
Rain Showers Rain Showers  
Wind Chill: 63°   Ceiling: 1200
Heat Index: 63°   Visibility: 6mi
Dew Point: 57°   Wind: 21mph
Humidity: 82%   Direction: 180°S
Pressure: 29.85"   Gusts: NA
Location:  50.5°N, 4.8°W
Report Text: EGHQ 311620Z 18018KT 9000 VCSH BKN012 17/14 Q1011
Loading
Personal Weather Stations






























Interactive Weather Map
Tropical Storm Tracking
New forecast layout! Learn more

10-Day Weather Forecast

Advertisements
Track Severe Weather on mobile